Time;durP1;ratioP1;P1;durP2;ratioP2;P2;SDS_P1;SDS_P2;PMS_P1;PMS_P2;Temp;Humidity;BMP_temperature;BMP_pressure;BME280_temperature;BME280_humidity;BME280_pressure;Samples;Min_cycle;Max_cycle;Signal;HPM_P1;HPM_P2
2022/11/01 00:00:35;;;;;;;10.93;8.93;;;;;;;12.96;100.00;154688.66;5093986;28;21063;-76
2022/11/01 00:03:22;;;;;;;12.53;9.13;;;;;;;12.93;100.00;154680.88;5118922;27;20984;-75
2022/11/01 00:06:07;;;;;;;9.70;8.80;;;;;;;12.86;100.00;154662.72;5112692;28;20996;-75
2022/11/01 00:08:52;;;;;;;11.30;10.10;;;;;;;12.83;100.00;154654.94;5106204;28;20570;-77
2022/11/01 00:11:38;;;;;;;11.20;10.00;;;;;;;12.85;100.00;154660.13;5106735;27;20517;-77
2022/11/01 00:14:23;;;;;;;11.97;10.67;;;;;;;12.83;100.00;154654.94;5094214;28;20440;-76
2022/11/01 00:17:09;;;;;;;11.47;10.27;;;;;;;12.83;100.00;154654.94;5114570;28;20423;-76
2022/11/01 00:19:55;;;;;;;11.70;10.53;;;;;;;12.82;100.00;154653.63;5108777;28;20931;-76
2022/11/01 00:22:40;;;;;;;11.60;9.67;;;;;;;12.82;100.00;154652.31;5095594;28;20548;-76
2022/11/01 00:25:26;;;;;;;11.20;10.03;;;;;;;12.82;100.00;154652.31;5113736;28;20514;-76
2022/11/01 00:28:12;;;;;;;13.83;10.87;;;;;;;12.80;100.00;154647.16;5113518;28;20929;-76
2022/11/01 00:30:58;;;;;;;12.03;10.93;;;;;;;12.81;100.00;154649.75;5116615;27;20472;-76
2022/11/01 00:33:43;;;;;;;11.93;9.90;;;;;;;12.86;100.00;154662.72;5113545;28;20454;-76
2022/11/01 00:36:31;;;;;;;12.70;9.67;;;;;;;12.89;100.00;154670.53;5114220;28;20427;-76
2022/11/01 00:39:16;;;;;;;11.53;10.33;;;;;;;12.88;100.00;154667.91;5119359;27;20488;-76
2022/11/01 00:42:02;;;;;;;12.53;9.97;;;;;;;12.87;100.00;154665.28;5119556;27;20541;-76
2022/11/01 00:44:47;;;;;;;11.07;9.97;;;;;;;12.88;100.00;154666.59;5098032;28;20443;-76
2022/11/01 00:47:33;;;;;;;14.47;10.40;;;;;;;12.83;100.00;154654.94;5126556;27;20446;-76
2022/11/01 00:50:18;;;;;;;15.27;11.53;;;;;;;12.84;100.00;154657.50;5125964;27;20577;-76
2022/11/01 00:53:05;;;;;;;10.87;9.77;;;;;;;12.80;100.00;154647.16;5098017;28;20434;-76
2022/11/01 00:55:50;;;;;;;11.90;10.53;;;;;;;12.76;100.00;154638.06;5110628;28;20440;-76
2022/11/01 00:58:35;;;;;;;12.10;10.30;;;;;;;12.71;100.00;154623.78;5092753;28;20404;-76
2022/11/01 01:01:24;;;;;;;11.93;9.97;;;;;;;12.70;100.00;154621.22;5113324;28;20557;-76
2022/11/01 01:04:09;;;;;;;12.57;11.27;;;;;;;12.69;100.00;154618.63;5127352;27;20426;-76
2022/11/01 01:06:55;;;;;;;13.90;10.33;;;;;;;12.64;100.00;154605.66;5108456;28;20961;-76
2022/11/01 01:09:41;;;;;;;13.80;11.03;;;;;;;12.61;100.00;154597.84;5112969;28;20403;-89
2022/11/01 01:12:27;;;;;;;14.70;10.00;;;;;;;12.60;100.00;154595.28;5113724;28;20473;-90
2022/11/01 01:15:12;;;;;;;13.27;11.07;;;;;;;12.56;100.00;154584.91;5118428;27;20438;-89
2022/11/01 01:17:58;;;;;;;13.00;11.37;;;;;;;12.56;100.00;154584.91;5133524;27;20426;-89
2022/11/01 01:20:43;;;;;;;11.40;10.20;;;;;;;12.57;100.00;154587.50;5129867;27;20430;-90
2022/11/01 01:23:28;;;;;;;13.30;10.70;;;;;;;12.56;100.00;154586.19;5123628;27;20537;-90
2022/11/01 01:26:15;;;;;;;14.63;10.60;;;;;;;12.54;100.00;154581.03;5130659;27;20504;-90
2022/11/01 01:29:00;;;;;;;17.70;11.13;;;;;;;12.53;100.00;154577.09;5111438;28;20419;-89
2022/11/01 01:31:46;;;;;;;12.97;9.67;;;;;;;12.47;100.00;154561.59;5111800;28;20829;-90
2022/11/01 01:34:33;;;;;;;11.83;10.67;;;;;;;12.49;100.00;154566.75;5125954;27;20441;-90
2022/11/01 01:37:19;;;;;;;12.00;10.90;;;;;;;12.49;100.00;154566.75;5115825;27;20485;-89
2022/11/01 01:40:05;;;;;;;9.60;8.60;;;;;;;12.51;100.00;154571.94;5111565;28;20748;-90
2022/11/01 01:42:52;;;;;;;11.37;9.63;;;;;;;12.51;100.00;154571.94;5095988;28;21090;-90
2022/11/01 01:45:39;;;;;;;15.07;8.57;;;;;;;12.52;100.00;154574.53;5113436;28;20467;-90
2022/11/01 01:48:27;;;;;;;10.50;8.53;;;;;;;12.53;100.00;154577.09;5112787;28;21152;-90
2022/11/01 01:51:15;;;;;;;9.93;8.93;;;;;;;12.51;100.00;154573.25;5109572;28;20451;-90
2022/11/01 01:54:00;;;;;;;10.90;8.97;;;;;;;12.53;100.00;154577.09;5112892;28;20427;-89
2022/11/01 01:56:45;;;;;;;11.67;8.47;;;;;;;12.52;100.00;154575.78;5130760;27;20572;-90
2022/11/01 01:59:32;;;;;;;16.57;9.50;;;;;;;12.52;100.00;154575.78;5125362;27;20849;-89
2022/11/01 02:02:18;;;;;;;10.17;9.10;;;;;;;12.55;100.00;154583.59;5091864;28;20525;-89
2022/11/01 02:05:11;;;;;;;9.83;8.03;;;;;;;12.58;100.00;154590.06;5119152;28;20500;-90
2022/11/01 02:07:57;;;;;;;11.67;8.00;;;;;;;12.60;100.00;154595.28;5116899;28;20447;-90
2022/11/01 02:10:42;;;;;;;9.90;8.80;;;;;;;12.60;100.00;154595.28;5126054;28;20425;-90
2022/11/01 02:13:28;;;;;;;10.00;8.67;;;;;;;12.61;100.00;154599.16;5115910;28;20447;-89
2022/11/01 02:16:28;;;;;;;12.47;8.90;;;;;;;12.62;100.00;154600.47;5093214;28;20443;-89
2022/11/01 02:20:01;;;;;;;13.80;9.20;;;;;;;12.62;100.00;154600.47;5094671;28;20451;-90
2022/11/01 02:23:11;;;;;;;10.70;8.83;;;;;;;12.62;100.00;154600.47;5092039;28;20424;-90
2022/11/01 02:26:09;;;;;;;9.40;8.40;;;;;;;12.63;100.00;154604.34;5091841;28;20448;-89
2022/11/01 02:29:08;;;;;;;9.07;8.17;;;;;;;12.67;100.00;154613.44;5109685;28;20577;-89
2022/11/01 02:32:06;;;;;;;11.43;8.60;;;;;;;12.67;100.00;154613.44;5106395;28;20533;-90
2022/11/01 02:34:56;;;;;;;11.97;7.70;;;;;;;12.71;100.00;154625.09;5112538;28;20412;-89
2022/11/01 02:37:44;;;;;;;8.33;7.53;;;;;;;12.71;100.00;154623.78;5124512;28;20462;-90
2022/11/01 02:40:35;;;;;;;9.80;8.30;;;;;;;12.75;100.00;154635.50;5091627;28;20775;-90
2022/11/01 02:43:22;;;;;;;10.63;7.93;;;;;;;12.77;100.00;154640.66;5092312;28;20432;-89
2022/11/01 02:49:11;;;;;;;9.40;8.40;;;;;;;12.81;100.00;154649.75;5106916;28;20460;-76
2022/11/01 02:51:57;;;;;;;11.80;8.00;;;;;;;12.81;100.00;154649.75;5112816;28;20513;-76
2022/11/01 02:54:44;;;;;;;10.07;8.10;;;;;;;12.83;100.00;154656.25;5110277;28;20515;-76
2022/11/01 02:57:33;;;;;;;10.37;8.70;;;;;;;12.84;100.00;154657.50;5128497;28;21040;-76
2022/11/01 03:00:21;;;;;;;12.17;9.10;;;;;;;12.84;100.00;154657.50;5111397;28;20424;-76
2022/11/01 03:03:11;;;;;;;15.53;9.17;;;;;;;12.83;100.00;154656.25;5117639;28;20491;-76
2022/11/01 03:06:04;;;;;;;9.30;8.30;;;;;;;12.82;100.00;154653.63;5095875;28;20454;-76
2022/11/01 03:08:51;;;;;;;15.37;8.17;;;;;;;12.84;100.00;154657.50;5099561;28;20451;-76
2022/11/01 03:11:50;;;;;;;9.60;8.33;;;;;;;12.84;100.00;154657.50;5114891;28;20447;-76
2022/11/01 03:14:41;;;;;;;9.50;8.50;;;;;;;12.85;100.00;154660.13;5132421;27;20444;-76
2022/11/01 03:17:32;;;;;;;10.70;8.30;;;;;;;12.86;100.00;154661.44;5128329;27;20451;-76
2022/11/01 03:20:21;;;;;;;10.60;8.93;;;;;;;12.84;100.00;154657.50;5131531;27;20560;-76
2022/11/01 03:23:09;;;;;;;11.20;8.77;;;;;;;12.83;100.00;154654.94;5124435;27;20563;-76
2022/11/01 03:25:56;;;;;;;12.03;9.20;;;;;;;12.84;100.00;154657.50;5120759;27;20442;-76
2022/11/01 03:28:44;;;;;;;10.67;8.60;;;;;;;12.82;100.00;154653.63;5099919;28;20428;-76
2022/11/01 03:31:32;;;;;;;9.47;8.47;;;;;;;12.82;100.00;154652.31;5111845;27;20560;-77
2022/11/01 03:34:19;;;;;;;10.30;8.93;;;;;;;12.79;100.00;154645.84;5136063;27;20970;-75
2022/11/01 03:37:07;;;;;;;13.70;8.10;;;;;;;12.74;100.00;154631.56;5120941;27;20451;-75
2022/11/01 03:39:54;;;;;;;12.87;8.77;;;;;;;12.72;100.00;154626.41;5109823;27;20796;-76
2022/11/01 03:42:40;;;;;;;9.50;8.17;;;;;;;12.74;100.00;154631.56;5136066;27;20484;-75
2022/11/01 03:45:27;;;;;;;11.83;8.47;;;;;;;12.74;100.00;154632.88;5127477;27;20454;-75
2022/11/01 03:48:13;;;;;;;10.30;8.53;;;;;;;12.75;100.00;154634.19;5113778;28;20544;-75
2022/11/01 03:50:58;;;;;;;9.47;8.50;;;;;;;12.78;100.00;154641.97;5131551;27;20435;-76
2022/11/01 03:53:44;;;;;;;9.03;7.57;;;;;;;12.84;100.00;154658.81;5123714;27;20424;-75
2022/11/01 03:56:31;;;;;;;10.30;7.30;;;;;;;12.87;100.00;154664.03;5114652;28;20438;-78
2022/11/01 03:59:16;;;;;;;10.10;6.97;;;;;;;12.92;100.00;154678.25;5126494;27;20923;-76
2022/11/01 04:02:01;;;;;;;7.73;6.93;;;;;;;12.98;100.00;154693.84;5119164;27;20466;-76
2022/11/01 04:04:47;;;;;;;9.87;6.50;;;;;;;13.03;100.00;154706.81;5103715;28;20442;-76
2022/11/01 04:07:32;;;;;;;10.23;6.50;;;;;;;13.06;100.00;154714.59;5116623;27;20520;-76
2022/11/01 04:10:18;;;;;;;9.40;6.60;;;;;;;13.09;100.00;154722.44;5125836;27;20570;-76
2022/11/01 04:13:05;;;;;;;7.50;5.80;;;;;;;13.15;100.00;154738.03;5114951;28;20423;-76
2022/11/01 04:21:56;;;;;;;8.73;6.67;;;;;;;13.21;100.00;154753.56;5093752;28;20780;-77
2022/11/01 04:24:41;;;;;;;8.07;6.10;;;;;;;13.24;100.00;154761.34;5094277;28;21086;-76
2022/11/01 04:27:27;;;;;;;7.97;5.63;;;;;;;13.23;100.00;154758.78;5123417;27;20601;-76
2022/11/01 04:30:14;;;;;;;7.40;5.50;;;;;;;13.30;100.00;154776.94;5134011;27;20456;-76
2022/11/01 04:32:59;;;;;;;8.87;6.23;;;;;;;13.30;100.00;154776.94;5119138;27;20438;-76
2022/11/01 04:35:45;;;;;;;9.73;5.80;;;;;;;13.30;100.00;154775.63;5126591;27;20441;-77
2022/11/01 04:38:30;;;;;;;6.37;5.40;;;;;;;13.28;100.00;154771.75;5132177;27;20406;-77
2022/11/01 04:41:17;;;;;;;9.80;5.30;;;;;;;13.31;100.00;154779.56;5092825;28;20413;-77
2022/11/01 04:44:02;;;;;;;6.03;4.63;;;;;;;13.34;100.00;154787.28;5101279;27;20443;-77
2022/11/01 04:46:48;;;;;;;6.03;4.53;;;;;;;13.40;100.00;154802.88;5113413;27;20474;-77
2022/11/01 04:49:34;;;;;;;6.93;5.27;;;;;;;13.46;100.00;154815.84;5113234;28;20906;-76
2022/11/01 04:52:19;;;;;;;6.27;4.00;;;;;;;13.48;100.00;154821.03;5105608;28;20622;-77
2022/11/01 04:55:05;;;;;;;8.73;4.20;;;;;;;13.59;100.00;154849.59;5077821;28;20412;-77
2022/11/01 04:57:51;;;;;;;4.43;3.93;;;;;;;13.59;100.00;154849.59;5093513;28;20427;-77
2022/11/01 05:00:36;;;;;;;4.90;3.47;;;;;;;13.64;100.00;154863.88;5096560;27;20458;-77
2022/11/01 05:03:23;;;;;;;6.23;4.03;;;;;;;13.68;100.00;154872.97;5098361;28;20459;-77
2022/11/01 05:06:08;;;;;;;6.77;4.00;;;;;;;13.71;100.00;154880.78;5111417;28;20979;-76
2022/11/01 05:08:54;;;;;;;10.03;5.17;;;;;;;13.77;100.00;154897.63;5093016;28;20396;-77
2022/11/01 05:11:39;;;;;;;4.63;3.03;;;;;;;13.82;100.00;154909.34;5116808;27;20439;-76
2022/11/01 05:14:25;;;;;;;3.00;2.70;;;;;;;13.86;100.00;154919.69;5114750;28;20399;-76
2022/11/01 05:17:10;;;;;;;8.77;3.67;;;;;;;13.87;100.00;154922.31;5098444;28;20443;-77
2022/11/01 05:19:57;;;;;;;3.60;2.70;;;;;;;13.91;100.00;154933.97;5114855;27;20444;-77
2022/11/01 05:22:42;;;;;;;3.27;2.63;;;;;;;13.85;100.00;154917.06;5129552;27;20463;-76
2022/11/01 05:25:28;;;;;;;4.10;3.03;;;;;;;13.86;100.00;154921.00;5101121;28;20938;-77
2022/11/01 05:28:13;;;;;;;4.10;2.70;;;;;;;13.87;100.00;154922.31;5109639;28;20459;-77
2022/11/01 05:30:59;;;;;;;5.13;3.10;;;;;;;13.85;100.00;154917.06;5130904;27;20426;-77
2022/11/01 05:33:44;;;;;;;5.23;2.60;;;;;;;13.93;100.00;154939.16;5128528;27;20518;-77
2022/11/01 05:36:30;;;;;;;3.70;2.77;;;;;;;14.00;100.00;154956.06;5116354;27;20435;-75
2022/11/01 05:39:16;;;;;;;4.90;2.60;;;;;;;14.03;100.00;154965.13;5122681;27;20485;-77
2022/11/01 05:42:01;;;;;;;6.23;2.87;;;;;;;14.03;100.00;154963.84;5111268;27;20781;-77
2022/11/01 05:44:46;;;;;;;5.47;3.00;;;;;;;14.10;100.00;154982.03;5112743;28;20403;-77
2022/11/01 05:47:32;;;;;;;3.20;2.80;;;;;;;14.23;100.00;155015.78;5113833;27;20547;-77
2022/11/01 05:50:17;;;;;;;4.87;2.50;;;;;;;14.23;100.00;155015.78;5101629;28;21015;-77
2022/11/01 05:53:08;;;;;;;3.00;2.70;;;;;;;14.12;100.00;154987.19;5116994;27;20481;-77
2022/11/01 05:55:56;;;;;;;3.30;2.80;;;;;;;14.09;100.00;154978.09;5123089;27;20441;-76
2022/11/01 05:58:41;;;;;;;4.50;2.77;;;;;;;14.08;100.00;154976.84;5093335;28;20400;-76
2022/11/01 06:01:26;;;;;;;4.33;2.90;;;;;;;13.99;100.00;154953.44;5108719;28;20483;-76
2022/11/01 06:04:11;;;;;;;2.43;2.23;;;;;;;13.95;100.00;154944.34;5110024;28;20755;-76
2022/11/01 06:06:57;;;;;;;3.47;2.50;;;;;;;13.93;100.00;154937.84;5117396;28;20811;-76
2022/11/01 06:09:44;;;;;;;3.90;2.20;;;;;;;13.96;100.00;154945.66;5124191;28;20426;-76
2022/11/01 06:12:29;;;;;;;3.87;2.70;;;;;;;13.90;100.00;154931.38;5106134;28;20929;-76
2022/11/01 06:15:15;;;;;;;4.73;2.33;;;;;;;13.90;100.00;154930.06;5110905;28;20450;-76
2022/11/01 06:18:00;;;;;;;2.80;2.40;;;;;;;13.90;100.00;154930.06;5126660;28;20506;-76
2022/11/01 06:20:49;;;;;;;6.03;2.50;;;;;;;13.89;100.00;154927.50;5107612;28;20569;-76
2022/11/01 06:23:34;;;;;;;3.23;2.20;;;;;;;13.91;100.00;154933.97;5104593;28;20443;-77
2022/11/01 06:26:22;;;;;;;2.17;1.50;;;;;;;13.90;100.00;154930.06;5123674;28;20977;-76
2022/11/01 06:29:12;;;;;;;3.57;1.90;;;;;;;13.91;100.00;154932.66;5099712;28;20485;-76
2022/11/01 06:32:04;;;;;;;2.20;1.83;;;;;;;13.88;100.00;154924.88;5102723;28;20443;-76
2022/11/01 06:34:50;;;;;;;2.20;1.60;;;;;;;13.85;100.00;154917.06;5111034;28;20432;-76
2022/11/01 06:37:35;;;;;;;3.20;2.00;;;;;;;13.87;100.00;154923.56;5113313;28;20459;-77
2022/11/01 06:40:20;;;;;;;2.20;1.97;;;;;;;13.94;100.00;154941.78;5111747;28;20466;-76
2022/11/01 06:43:10;;;;;;;3.17;2.00;;;;;;;13.96;100.00;154945.66;5115806;27;20458;-76
2022/11/01 06:45:55;;;;;;;2.90;1.60;;;;;;;13.90;100.00;154930.06;5126370;27;20832;-76
2022/11/01 06:48:40;;;;;;;3.33;1.90;;;;;;;13.87;100.00;154922.31;5116587;28;20442;-76
2022/11/01 06:51:29;;;;;;;3.17;1.90;;;;;;;13.82;100.00;154909.34;5104234;28;20435;-76
2022/11/01 06:54:14;;;;;;;3.77;2.07;;;;;;;13.82;100.00;154909.34;5117296;28;20427;-76
2022/11/01 06:57:00;;;;;;;2.47;1.60;;;;;;;13.84;100.00;154914.50;5115844;28;20943;-76
2022/11/01 06:59:46;;;;;;;2.90;1.70;;;;;;;13.85;100.00;154917.06;5115162;27;20451;-74
2022/11/01 07:02:32;;;;;;;3.00;1.60;;;;;;;13.88;100.00;154924.88;5119312;27;20516;-74
2022/11/01 07:05:18;;;;;;;3.13;1.70;;;;;;;13.87;100.00;154922.31;5116641;28;20487;-75
2022/11/01 07:08:04;;;;;;;3.00;1.83;;;;;;;13.85;100.00;154918.38;5112698;28;20537;-75
2022/11/01 07:10:50;;;;;;;3.63;1.63;;;;;;;13.85;100.00;154918.38;5116949;27;20435;-76
2022/11/01 07:13:37;;;;;;;3.00;1.50;;;;;;;13.87;100.00;154923.56;5116470;28;20423;-75
2022/11/01 07:16:23;;;;;;;3.23;1.77;;;;;;;13.88;100.00;154924.88;5116101;27;20450;-75
2022/11/01 07:19:09;;;;;;;2.37;1.50;;;;;;;13.87;100.00;154923.56;5123568;27;20964;-76
2022/11/01 07:21:54;;;;;;;2.70;1.20;;;;;;;13.89;100.00;154927.50;5120146;27;20448;-90
2022/11/01 07:24:39;;;;;;;2.53;1.20;;;;;;;13.91;100.00;154932.66;5119500;27;20466;-89
2022/11/01 07:27:24;;;;;;;5.53;1.20;;;;;;;13.92;100.00;154935.28;5112561;28;20459;-90
2022/11/01 07:30:11;;;;;;;3.47;1.67;;;;;;;13.92;100.00;154935.28;5113078;27;20439;-90
2022/11/01 07:32:59;;;;;;;1.97;1.47;;;;;;;13.97;100.00;154948.25;5114147;28;20525;-90
2022/11/01 07:35:45;;;;;;;1.70;1.27;;;;;;;14.01;100.00;154959.94;5111455;27;20690;-90
2022/11/01 07:38:31;;;;;;;2.07;0.93;;;;;;;14.06;100.00;154970.34;5100143;28;20532;-90
2022/11/01 07:41:16;;;;;;;1.53;1.10;;;;;;;14.08;100.00;154975.53;5114559;28;20795;-90
2022/11/01 07:44:02;;;;;;;1.30;0.80;;;;;;;14.20;100.00;155007.97;5114905;28;20447;-90
2022/11/01 07:46:48;;;;;;;1.50;1.10;;;;;;;14.19;100.00;155005.34;5123526;27;20922;-90
2022/11/01 07:49:34;;;;;;;1.80;1.10;;;;;;;14.16;100.00;154997.59;5112329;28;20501;-90
2022/11/01 07:52:20;;;;;;;2.13;1.00;;;;;;;14.19;100.00;155005.34;5131071;27;20454;-89
2022/11/01 07:55:06;;;;;;;2.13;0.93;;;;;;;14.29;100.00;155031.38;5124268;27;20462;-89
2022/11/01 07:57:51;;;;;;;3.53;0.90;;;;;;;14.34;100.00;155044.41;5110526;27;20460;-89
2022/11/01 08:00:37;;;;;;;1.30;0.80;;;;;;;14.39;100.00;155057.38;5111269;28;20447;-89
2022/11/01 08:03:22;;;;;;;2.30;1.10;;;;;;;14.40;100.00;155059.94;5115281;28;20479;-90
2022/11/01 08:06:09;;;;;;;1.77;1.20;;;;;;;14.42;100.00;155065.19;5116721;27;20404;-89
2022/11/01 08:08:55;;;;;;;2.83;1.43;;;;;;;14.43;100.00;155067.75;5116621;27;20938;-89
2022/11/01 08:11:40;;;;;;;1.83;1.10;;;;;;;14.51;100.00;155087.22;5135474;27;20431;-90
2022/11/01 08:14:26;;;;;;;2.33;0.93;;;;;;;14.53;100.00;155093.72;5131571;27;20442;-91
2022/11/01 08:17:11;;;;;;;2.07;0.93;;;;;;;14.60;100.00;155111.94;5102400;27;20444;-89
2022/11/01 08:19:57;;;;;;;1.43;0.83;;;;;;;14.61;100.00;155114.50;5106184;28;20443;-90
2022/11/01 08:22:44;;;;;;;1.50;0.80;;;;;;;14.67;100.00;155128.78;5119076;27;20447;-90
2022/11/01 08:25:29;;;;;;;1.40;0.93;;;;;;;14.73;100.00;155143.09;5111621;27;20431;-90
2022/11/01 08:28:16;;;;;;;1.57;0.80;;;;;;;14.79;100.00;155158.69;5094654;28;20475;-90
2022/11/01 08:31:05;;;;;;;1.70;0.90;;;;;;;14.84;100.00;155171.66;5089215;27;20573;-90
2022/11/01 08:33:50;;;;;;;1.97;1.27;;;;;;;14.84;100.00;155172.97;5133883;27;20442;-91
2022/11/01 08:36:36;;;;;;;2.43;1.00;;;;;;;14.86;100.00;155178.16;5110018;27;20439;-89
2022/11/01 08:39:23;;;;;;;2.90;0.73;;;;;;;14.88;100.00;155183.34;5096552;28;20432;-90
2022/11/01 08:42:08;;;;;;;1.90;1.10;;;;;;;14.98;100.00;155209.38;5119584;27;20415;-76
2022/11/01 08:44:54;;;;;;;1.33;0.93;;;;;;;15.01;100.00;155217.13;5113592;27;20975;-76
2022/11/01 08:47:39;;;;;;;1.70;0.90;;;;;;;15.05;100.00;155226.22;5109099;28;20467;-76
2022/11/01 08:50:25;;;;;;;1.50;0.90;;;;;;;15.07;100.00;155231.41;5120620;27;20447;-76
2022/11/01 08:53:12;;;;;;;1.10;0.70;;;;;;;15.12;100.00;155244.41;5111214;27;20444;-76
2022/11/01 08:55:58;;;;;;;1.43;0.87;;;;;;;15.15;100.00;155252.22;5110687;28;20451;-76
2022/11/01 08:58:44;;;;;;;5.43;1.30;;;;;;;15.20;100.00;155265.19;5101224;27;20883;-76
2022/11/01 09:01:29;;;;;;;1.20;0.90;;;;;;;15.24;100.00;155275.63;5111316;28;20467;-76
2022/11/01 09:04:14;;;;;;;2.50;0.90;;;;;;;15.29;100.00;155288.63;5111047;28;20637;-76
2022/11/01 09:07:00;;;;;;;1.63;1.03;;;;;;;15.30;100.00;155289.91;5103041;28;21273;-76
2022/11/01 09:09:45;;;;;;;1.10;0.60;;;;;;;15.27;100.00;155283.44;5096178;28;20436;-75
2022/11/01 09:12:32;;;;;;;1.70;1.20;;;;;;;15.29;100.00;155288.63;5093148;28;20417;-76
2022/11/01 09:15:17;;;;;;;2.50;1.10;;;;;;;15.34;100.00;155301.59;5093382;28;20481;-77
2022/11/01 09:18:06;;;;;;;1.33;0.70;;;;;;;15.37;100.00;155309.41;5102308;28;20432;-77
2022/11/01 09:20:53;;;;;;;3.13;1.20;;;;;;;15.37;100.00;155309.41;5113238;28;20411;-77
2022/11/01 09:23:38;;;;;;;1.40;0.70;;;;;;;15.38;100.00;155311.97;5111043;28;20516;-77
2022/11/01 09:26:25;;;;;;;2.00;1.13;;;;;;;15.41;100.00;155318.53;5100419;27;20432;-77
2022/11/01 09:29:12;;;;;;;1.40;0.87;;;;;;;15.40;100.00;155317.22;5111628;28;20419;-77
2022/11/01 09:31:58;;;;;;;1.13;0.70;;;;;;;15.47;100.00;155335.44;5109374;28;20447;-77
2022/11/01 09:34:44;;;;;;;4.60;0.87;;;;;;;15.51;100.00;155345.88;5098135;27;20575;-77
2022/11/01 09:37:29;;;;;;;2.30;0.93;;;;;;;15.54;100.00;155353.63;5100994;28;20407;-77
2022/11/01 09:40:16;;;;;;;1.23;0.87;;;;;;;15.58;100.00;155364.03;5111835;28;20428;-77
2022/11/01 09:43:02;;;;;;;1.73;0.70;;;;;;;15.65;100.00;155382.22;5096306;28;20451;-77
2022/11/01 09:45:51;;;;;;;1.20;0.80;;;;;;;15.69;100.00;155392.66;5102658;28;20428;-77
2022/11/01 09:48:36;;;;;;;1.10;0.70;;;;;;;15.87;100.00;155436.81;5106954;28;20998;-77
2022/11/01 09:51:23;;;;;;;1.03;0.60;;;;;;;15.88;100.00;155440.75;5113524;27;20454;-77
2022/11/01 09:54:10;;;;;;;1.20;0.80;;;;;;;15.95;100.00;155457.63;5096508;28;20780;-78
2022/11/01 09:57:06;;;;;;;1.40;0.60;;;;;;;16.07;100.00;155490.13;5112827;28;20420;-78
2022/11/01 10:00:01;;;;;;;1.20;0.70;;;;;;;16.20;100.00;155522.66;5111959;27;20794;-77
2022/11/01 10:03:18;;;;;;;1.10;0.73;;;;;;;16.22;100.00;155529.16;5095920;28;20605;-77
2022/11/01 10:06:09;;;;;;;1.40;0.80;;;;;;;16.33;100.00;155556.47;5111490;28;20436;-75
2022/11/01 10:09:01;;;;;;;1.13;0.60;;;;;;;16.39;100.00;155572.06;5114201;28;20806;-76
2022/11/01 10:12:11;;;;;;;1.20;0.70;;;;;;;16.42;99.98;155579.88;5112660;28;20412;-76
2022/11/01 10:15:04;;;;;;;1.20;0.50;;;;;;;16.50;99.37;155600.66;5112017;28;20513;-76
2022/11/01 10:17:50;;;;;;;1.60;1.07;;;;;;;16.51;100.00;155603.28;5119431;28;20774;-76
2022/11/01 10:20:38;;;;;;;1.00;0.67;;;;;;;16.57;99.16;155617.66;5109414;27;20768;-76
2022/11/01 10:23:31;;;;;;;2.80;1.00;;;;;;;16.62;99.74;155631.97;5115758;27;20431;-77
2022/11/01 10:26:19;;;;;;;3.13;1.50;;;;;;;16.69;99.81;155650.16;5122132;27;21327;-77
2022/11/01 10:29:11;;;;;;;1.37;1.00;;;;;;;16.75;98.18;155665.78;5116727;28;20470;-77
2022/11/01 10:31:57;;;;;;;1.43;0.90;;;;;;;16.82;96.44;155684.00;5116813;28;20415;-77
2022/11/01 10:34:42;;;;;;;1.67;1.00;;;;;;;16.82;97.27;155684.00;5112761;27;20585;-77
2022/11/01 10:37:35;;;;;;;3.03;0.90;;;;;;;16.88;96.51;155699.63;5110154;27;20537;-77
2022/11/01 10:40:24;;;;;;;1.53;0.83;;;;;;;16.96;95.37;155720.44;5113687;27;20521;-77
2022/11/01 10:43:14;;;;;;;3.97;1.00;;;;;;;17.03;94.11;155737.31;5125336;27;20787;-77
2022/11/01 10:46:00;;;;;;;3.17;1.13;;;;;;;17.06;92.72;155745.13;5108987;27;20443;-77
2022/11/01 10:48:48;;;;;;;1.87;0.80;;;;;;;17.11;93.46;155758.16;5116153;28;20965;-77
2022/11/01 10:51:35;;;;;;;2.20;1.70;;;;;;;17.07;96.23;155747.75;5115676;28;20755;-77
2022/11/01 10:54:25;;;;;;;1.33;0.80;;;;;;;17.08;93.03;155749.06;5118994;27;20450;-77
2022/11/01 10:57:14;;;;;;;1.57;0.97;;;;;;;17.04;93.31;155739.94;5113682;28;20447;-77
2022/11/01 11:00:03;;;;;;;2.20;1.00;;;;;;;17.03;93.39;155738.63;5106889;27;20505;-77
2022/11/01 11:02:50;;;;;;;2.57;1.23;;;;;;;17.05;93.39;155743.81;5114143;27;20483;-77
2022/11/01 11:05:35;;;;;;;2.23;0.93;;;;;;;17.15;91.28;155767.28;5113078;27;20525;-77
2022/11/01 11:08:22;;;;;;;2.60;1.63;;;;;;;17.16;90.75;155769.84;5114299;28;20518;-77
2022/11/01 11:11:13;;;;;;;1.43;1.00;;;;;;;17.13;89.19;155762.06;5103170;27;20942;-77
2022/11/01 11:13:59;;;;;;;1.67;1.10;;;;;;;17.22;88.04;155785.47;5095956;28;20425;-77
2022/11/01 11:16:47;;;;;;;2.30;1.00;;;;;;;17.21;88.32;155782.91;5113668;27;20942;-77
2022/11/01 11:19:33;;;;;;;1.60;0.90;;;;;;;17.16;87.27;155771.16;5111472;28;20444;-77
2022/11/01 11:22:20;;;;;;;2.00;1.07;;;;;;;17.12;87.24;155760.78;5103146;28;20452;-77
2022/11/01 11:25:08;;;;;;;2.67;1.40;;;;;;;17.13;87.68;155762.06;5113273;28;20785;-77
2022/11/01 11:28:31;;;;;;;1.50;0.90;;;;;;;17.18;87.36;155776.41;5115560;28;20459;-77
2022/11/01 11:31:29;;;;;;;3.17;2.60;;;;;;;17.18;90.15;155776.41;5094437;27;20570;-77
2022/11/01 11:34:20;;;;;;;4.60;3.67;;;;;;;17.16;87.36;155769.84;5109930;27;20434;-77
2022/11/01 11:37:15;;;;;;;2.30;1.90;;;;;;;17.26;88.03;155795.91;5105075;28;20428;-77
2022/11/01 11:40:20;;;;;;;2.00;1.30;;;;;;;17.24;91.44;155790.66;5117569;27;20451;-77
2022/11/01 11:43:24;;;;;;;4.70;1.33;;;;;;;17.26;86.88;155797.16;5115789;28;20419;-77
2022/11/01 11:46:14;;;;;;;2.07;1.10;;;;;;;17.26;86.85;155795.91;5094727;28;20438;-77
2022/11/01 11:49:03;;;;;;;1.80;1.10;;;;;;;17.21;86.76;155784.16;5101567;27;20521;-77
2022/11/01 11:51:49;;;;;;;2.63;1.40;;;;;;;17.22;89.01;155786.78;5100273;28;20748;-77
2022/11/01 11:54:37;;;;;;;2.50;1.23;;;;;;;17.25;86.76;155793.28;5098201;28;20448;-77
2022/11/01 11:57:25;;;;;;;2.30;1.10;;;;;;;17.26;89.48;155795.91;5112526;27;20447;-77
2022/11/01 12:00:25;;;;;;;4.60;1.50;;;;;;;17.28;84.88;155801.09;5100072;28;20424;-77
2022/11/01 12:03:13;;;;;;;1.80;1.23;;;;;;;17.24;89.80;155790.66;5114141;28;20509;-77
2022/11/01 12:06:00;;;;;;;1.80;1.40;;;;;;;17.23;89.31;155788.09;5110262;27;20451;-77
2022/11/01 12:08:47;;;;;;;2.47;1.20;;;;;;;17.20;86.80;155780.28;5117975;27;20478;-77
2022/11/01 12:11:38;;;;;;;2.43;1.03;;;;;;;17.25;84.80;155794.59;5114318;28;20442;-77
2022/11/01 12:14:25;;;;;;;3.23;1.20;;;;;;;17.24;83.35;155790.66;5108317;27;20498;-77
2022/11/01 12:17:26;;;;;;;1.93;1.07;;;;;;;17.23;83.95;155789.41;5114484;28;20763;-75
2022/11/01 12:20:17;;;;;;;1.70;0.97;;;;;;;17.24;83.45;155791.97;5113705;27;20454;-77
2022/11/01 12:23:05;;;;;;;2.43;1.20;;;;;;;17.20;84.26;155781.59;5098547;27;20942;-78
2022/11/01 12:25:51;;;;;;;2.30;1.20;;;;;;;17.18;84.46;155775.09;5105986;27;20980;-78
2022/11/01 12:28:39;;;;;;;3.00;1.50;;;;;;;17.19;85.95;155777.66;5108679;28;20466;-78
2022/11/01 12:31:25;;;;;;;2.70;1.33;;;;;;;17.16;84.74;155769.84;5098301;28;20428;-77
2022/11/01 12:34:18;;;;;;;2.30;1.23;;;;;;;17.15;84.70;155767.28;5103148;27;20447;-77
2022/11/01 12:37:09;;;;;;;1.60;1.20;;;;;;;17.18;88.77;155775.09;5102618;27;20447;-77
2022/11/01 12:39:56;;;;;;;2.97;1.20;;;;;;;17.14;85.18;155764.66;5115436;27;20436;-78
2022/11/01 12:42:47;;;;;;;2.47;1.40;;;;;;;17.18;87.31;155776.41;5105430;27;20439;-77
2022/11/01 12:45:37;;;;;;;1.97;1.40;;;;;;;17.17;89.40;155772.47;5111222;28;21094;-90
2022/11/01 12:48:27;;;;;;;1.97;1.13;;;;;;;17.24;86.16;155790.66;5106537;28;20582;-91
2022/11/01 12:51:18;;;;;;;1.90;1.43;;;;;;;17.27;87.27;155798.47;5104079;28;20440;-91
2022/11/01 12:54:06;;;;;;;2.00;1.10;;;;;;;17.32;83.34;155811.50;5113126;28;21064;-91
2022/11/01 12:56:53;;;;;;;2.53;1.90;;;;;;;17.08;88.81;155750.34;5112799;27;20431;-91
2022/11/01 12:59:39;;;;;;;4.43;1.80;;;;;;;16.91;94.43;155707.44;5112842;27;21219;-91